Αρχική σελίδα
METAR-TAF:

METAR-TAF

Αεροδρόμια :

Νασσάου, Μπαχάμες

γεωγραφικό πλάτος: 25-03N, γεωγραφικό μήκος: 077-28W, υψόμετρο: 3 μ

Παρών καιρός

Η αναφορά έγινε 19 λεπτά πριν, στις 05:00 UTC
Άνεμος 7 kt από Β/BΔ
Θερμοκρασία 23°C
Υγρασία 69%
Πίεση 1019 hPa
Ορατότητα 10 χλμ και άνω
Διάσπαρτα νέφη σε ύψος 2000 πόδια
Αρκετά νέφη σε ύψος 4000 πόδια

METAR: MYNN 110500Z 33007KT 9999 SCT020 BKN040 23/17 A3010

Χρόνος: 00:19 (05:19 UTC)

Πρόγνωση Καιρού

Η αναφορά έγινε 6 ώρες και 49 λεπτά πριν, στις 22:30 UTC
Η πρόγνωση ισχύει από τις 11 στις 00 UTC έως τις 11 στις 24 UTC
Άνεμος 10 kt από Β/BΔ
Ορατότητα 10 χλμ και άνω
Λίγα νέφη σε ύψος 2000 πόδια
Αρκετά νέφη σε ύψος 4000 πόδια
Από 11 στις 1400 UTC
Άνεμος 15 kt από Β/BΔ με ριπές μέχρι 25 kt
Ορατότητα 10 χλμ και άνω
Διάσπαρτα νέφη σε ύψος 3000 πόδια

TAF: MYNN 102230Z 1100/1124 34010KT 9999 FEW020 BKN040 FM111400 34015G25KT 9999 SCT030

Μετεωρολογικές αναφορές και προγνώσεις για περισσότερα από 4000 αεροδρόμια (δελτία METAR και TAF).

Οι διαθέσιμοι σταθμοί απεικονίζονται στο χάρτη με κίτρινες και κόκκινες κουκκίδες.

Μετακινήστε το ποντίκι πάνω από τις κουκκίδες για να δείτε το όνομα του σταθμού.

Στη συνέχεια, κάντε κλικ για να δείτε τις μετεωρολογικές αναφορές και τις προγνώσεις καιρού.

Για να αλλάξετε το χάρτη: κάντε κλικ στα πράσινα κουμπιά με τον μαύρο σταυρό για να ζουμάρετε, στο πράσινο κουμπί με την παύλα για να αφαιρέσετε το ζουμ ή στα πράσινα βέλη για να αντιπαραβάλλετε χάρτες.


METAR-TAF: